Time;durP1;ratioP1;P1;durP2;ratioP2;P2;SDS_P1;SDS_P2;PMS_P1;PMS_P2;Temp;Humidity;BMP_temperature;BMP_pressure;BME280_temperature;BME280_humidity;BME280_pressure;Samples;Min_cycle;Max_cycle;Signal;HPM_P1;HPM_P2
2023/07/11 00:02:40;0.00;0.00;0.62;0.00;0.00;0.62;2.30;1.70;;;33.20;25.70;;;;;;2220583;62;20430;-59
2023/07/11 00:05:25;0.00;0.00;0.62;0.00;0.00;0.62;2.70;2.10;;;33.20;25.60;;;;;;2220109;62;20908;-59
2023/07/11 00:08:11;0.00;0.00;0.62;0.00;0.00;0.62;2.20;2.00;;;33.20;26.20;;;;;;2220333;62;20378;-59
2023/07/11 00:10:56;0.00;0.00;0.62;0.00;0.00;0.62;2.60;2.30;;;33.20;25.60;;;;;;2220548;62;20398;-59
2023/07/11 00:13:40;0.00;0.00;0.62;0.00;0.00;0.62;2.40;1.80;;;33.20;25.60;;;;;;2219765;62;20432;-59
2023/07/11 00:16:26;0.00;0.00;0.62;0.00;0.00;0.62;3.77;2.10;;;33.20;25.70;;;;;;2220559;62;20477;-59
2023/07/11 00:19:11;0.00;0.00;0.62;0.00;0.00;0.62;2.43;1.90;;;33.20;25.70;;;;;;2219918;62;20906;-59
2023/07/11 00:21:55;0.00;0.00;0.62;0.00;0.00;0.62;2.97;2.00;;;33.20;25.70;;;;;;2220283;62;20904;-59
2023/07/11 00:24:42;0.00;0.00;0.62;0.00;0.00;0.62;2.57;1.77;;;33.20;25.70;;;;;;2221057;62;20381;-59
2023/07/11 00:27:26;0.00;0.00;0.62;0.00;0.00;0.62;3.20;2.40;;;33.10;25.60;;;;;;2220948;62;20378;-58
2023/07/11 00:30:12;0.00;0.00;0.62;0.00;0.00;0.62;2.30;2.00;;;33.10;25.70;;;;;;2220259;62;20400;-58
2023/07/11 00:32:58;0.00;0.00;0.62;0.00;0.00;0.62;3.20;1.93;;;33.10;25.60;;;;;;2221273;62;20370;-59
2023/07/11 00:35:44;0.00;0.00;0.62;0.00;0.00;0.62;2.20;1.70;;;33.10;25.70;;;;;;2220741;62;20417;-59
2023/07/11 00:38:30;0.00;0.00;0.62;0.00;0.00;0.62;2.57;2.33;;;33.10;25.60;;;;;;2220869;62;20373;-58
2023/07/11 00:41:18;0.00;0.00;0.62;0.00;0.00;0.62;2.63;2.23;;;33.10;25.70;;;;;;2220436;62;20366;-59
2023/07/11 00:44:03;0.00;0.00;0.62;0.00;0.00;0.62;2.60;2.17;;;33.10;25.70;;;;;;2220217;62;20483;-59
2023/07/11 00:46:50;0.00;0.00;0.62;0.00;0.00;0.62;3.03;2.10;;;33.10;25.70;;;;;;2220710;62;20906;-57
2023/07/11 00:49:37;0.00;0.00;0.62;0.00;0.00;0.62;2.70;2.00;;;33.10;25.70;;;;;;2220741;62;20909;-57
2023/07/11 00:52:23;0.00;0.00;0.62;0.00;0.00;0.62;2.53;1.90;;;33.10;26.20;;;;;;2221224;62;20366;-59
2023/07/11 00:55:11;0.00;0.00;0.62;0.00;0.00;0.62;2.50;1.80;;;33.10;25.70;;;;;;2221810;62;20397;-57
2023/07/11 00:57:58;0.00;0.00;0.62;0.00;0.00;0.62;2.63;1.73;;;33.10;25.70;;;;;;2221448;62;20366;-58
2023/07/11 01:00:44;0.00;0.00;0.62;0.00;0.00;0.62;2.27;1.70;;;33.10;25.70;;;;;;2221169;62;20381;-57
2023/07/11 01:03:29;0.00;0.00;0.62;0.00;0.00;0.62;3.60;2.47;;;33.10;25.70;;;;;;2221370;62;20373;-56
2023/07/11 01:06:24;0.00;0.00;0.62;0.00;0.00;0.62;2.43;1.90;;;33.10;25.70;;;;;;2220494;62;20365;-60
2023/07/11 01:09:10;0.00;0.00;0.62;0.00;0.00;0.62;3.20;2.20;;;33.00;25.70;;;;;;2220715;62;20427;-60
2023/07/11 01:11:58;0.00;0.00;0.62;0.00;0.00;0.62;3.03;1.90;;;33.00;25.70;;;;;;2221533;62;20365;-60
2023/07/11 01:14:48;0.00;0.00;0.62;0.00;0.00;0.62;2.63;2.10;;;33.10;25.70;;;;;;2221238;62;20816;-60
2023/07/11 01:17:35;0.00;0.00;0.62;0.00;0.00;0.62;3.07;1.90;;;33.10;25.70;;;;;;2221565;62;20450;-59
2023/07/11 01:20:22;0.00;0.00;0.62;0.00;0.00;0.62;4.13;2.47;;;33.00;25.70;;;;;;2220474;62;20369;-60
2023/07/11 01:23:09;0.00;0.00;0.62;0.00;0.00;0.62;2.13;1.67;;;33.00;25.70;;;;;;2221793;62;20866;-59
2023/07/11 01:26:00;0.00;0.00;0.62;0.00;0.00;0.62;2.57;1.90;;;33.00;25.70;;;;;;2221638;62;20959;-59
2023/07/11 01:28:45;0.00;0.00;0.62;0.00;0.00;0.62;2.33;1.90;;;33.00;25.70;;;;;;2220281;62;20780;-60
2023/07/11 01:31:33;0.00;0.00;0.62;0.00;0.00;0.62;2.50;1.70;;;32.90;25.60;;;;;;2220923;62;20366;-60
2023/07/11 01:34:18;0.00;0.00;0.62;0.00;0.00;0.62;3.07;2.23;;;32.90;25.60;;;;;;2221190;62;20582;-59
2023/07/11 01:37:02;0.00;0.00;0.62;0.00;0.00;0.62;2.37;1.90;;;32.90;25.60;;;;;;2220780;62;20395;-60
2023/07/11 01:39:49;0.00;0.00;0.62;0.00;0.00;0.62;3.57;2.10;;;32.90;25.60;;;;;;2221198;62;20845;-66
2023/07/11 01:42:35;0.00;0.00;0.62;0.00;0.00;0.62;2.30;2.10;;;32.90;25.60;;;;;;2220745;62;20953;-59
2023/07/11 01:45:20;0.00;0.00;0.62;0.00;0.00;0.62;2.60;2.13;;;33.00;25.70;;;;;;2221462;62;20422;-59
2023/07/11 01:48:05;0.00;0.00;0.62;0.00;0.00;0.62;2.57;1.80;;;32.90;25.60;;;;;;2221532;62;20373;-59
2023/07/11 01:50:51;0.00;0.00;0.62;0.00;0.00;0.62;2.57;1.83;;;32.90;25.60;;;;;;2220848;62;20409;-60
2023/07/11 01:53:36;0.00;0.00;0.62;0.00;0.00;0.62;2.57;2.00;;;32.90;25.60;;;;;;2221733;62;20838;-59
2023/07/11 01:56:22;0.00;0.00;0.62;0.00;0.00;0.62;2.43;1.87;;;32.90;26.10;;;;;;2221129;62;20476;-60
2023/07/11 01:59:07;0.00;0.00;0.62;0.00;0.00;0.62;3.60;2.30;;;32.90;25.60;;;;;;2220577;62;20895;-58
2023/07/11 02:01:52;0.00;0.00;0.62;0.00;0.00;0.62;2.77;1.77;;;32.90;25.60;;;;;;2220995;62;20382;-60
2023/07/11 02:04:38;0.00;0.00;0.62;0.00;0.00;0.62;2.37;1.80;;;32.90;25.60;;;;;;2220343;62;20795;-59
2023/07/11 02:07:22;0.00;0.00;0.62;0.00;0.00;0.62;2.47;1.97;;;32.90;25.60;;;;;;2221071;62;20397;-59
2023/07/11 02:10:08;0.00;0.00;0.62;0.00;0.00;0.62;2.57;1.73;;;32.90;25.60;;;;;;2220894;62;20421;-60
2023/07/11 02:12:55;0.00;0.00;0.62;0.00;0.00;0.62;2.70;1.63;;;32.80;25.50;;;;;;2220425;62;20789;-57
2023/07/11 02:15:41;0.00;0.00;0.62;0.00;0.00;0.62;2.43;1.70;;;32.90;25.60;;;;;;2220981;62;20894;-61
2023/07/11 02:18:26;0.00;0.00;0.62;0.00;0.00;0.62;3.07;1.90;;;32.80;25.50;;;;;;2221177;62;20399;-59
2023/07/11 02:21:11;0.00;0.00;0.62;0.00;0.00;0.62;2.13;1.57;;;32.90;25.60;;;;;;2220907;62;21190;-59
2023/07/11 02:23:56;0.00;0.00;0.62;0.00;0.00;0.62;2.87;1.70;;;32.90;25.60;;;;;;2221471;62;20925;-57
2023/07/11 02:26:41;0.00;0.00;0.62;0.00;0.00;0.62;2.40;1.70;;;32.80;25.50;;;;;;2220762;62;20391;-59
2023/07/11 02:29:27;0.00;0.00;0.62;0.00;0.00;0.62;1.90;1.40;;;32.80;25.50;;;;;;2221509;62;20723;-60
2023/07/11 02:32:12;0.00;0.00;0.62;0.00;0.00;0.62;1.93;1.40;;;32.80;25.50;;;;;;2221109;62;20385;-59
2023/07/11 02:34:57;0.00;0.00;0.62;0.00;0.00;0.62;2.27;1.80;;;32.80;25.50;;;;;;2220637;62;20440;-59
2023/07/11 02:37:42;0.00;0.00;0.62;0.00;0.00;0.62;2.67;1.93;;;32.80;25.50;;;;;;2221699;62;20370;-61
2023/07/11 02:40:27;0.00;0.00;0.62;0.00;0.00;0.62;2.00;1.50;;;32.80;25.50;;;;;;2217993;62;20887;-62
2023/07/11 02:43:12;0.00;0.00;0.62;0.00;0.00;0.62;3.20;1.87;;;32.80;25.50;;;;;;2220904;62;20801;-59
2023/07/11 02:45:58;0.00;0.00;0.62;0.00;0.00;0.62;1.90;1.60;;;32.80;25.50;;;;;;2221389;62;20370;-60
2023/07/11 02:48:43;0.00;0.00;0.62;0.00;0.00;0.62;2.40;1.70;;;32.80;25.50;;;;;;2220590;62;20438;-61
2023/07/11 02:51:28;0.00;0.00;0.62;0.00;0.00;0.62;2.10;1.40;;;32.80;25.50;;;;;;2221427;62;20970;-61
2023/07/11 02:54:14;0.00;0.00;0.62;0.00;0.00;0.62;3.23;1.63;;;32.80;25.60;;;;;;2221384;62;20967;-61
2023/07/11 02:56:58;0.00;0.00;0.62;0.00;0.00;0.62;2.00;1.50;;;32.80;25.60;;;;;;2220740;62;20378;-61
2023/07/11 02:59:43;0.00;0.00;0.62;0.00;0.00;0.62;3.00;1.43;;;32.70;25.50;;;;;;2221083;62;20417;-63
2023/07/11 03:02:29;0.00;0.00;0.62;0.00;0.00;0.62;2.53;1.40;;;32.70;25.50;;;;;;2221426;62;20945;-61
2023/07/11 03:05:14;0.00;0.00;0.62;0.00;0.00;0.62;2.63;1.80;;;32.70;25.50;;;;;;2220658;62;20386;-60
2023/07/11 03:07:59;0.00;0.00;0.62;0.00;0.00;0.62;2.40;1.70;;;32.70;25.50;;;;;;2221314;62;20373;-61
2023/07/11 03:10:44;0.00;0.00;0.62;0.00;0.00;0.62;2.20;1.60;;;32.70;25.50;;;;;;2220723;62;20463;-59
2023/07/11 03:13:29;0.00;0.00;0.62;0.00;0.00;0.62;2.50;1.47;;;32.70;25.50;;;;;;2221236;62;20427;-61
2023/07/11 03:16:14;0.00;0.00;0.62;0.00;0.00;0.62;1.97;1.57;;;32.70;25.50;;;;;;2221405;62;20409;-59
2023/07/11 03:19:01;0.00;0.00;0.62;0.00;0.00;0.62;2.00;1.50;;;32.70;25.50;;;;;;2220396;62;20405;-60
2023/07/11 03:21:47;0.00;0.00;0.62;0.00;0.00;0.62;2.20;1.40;;;32.70;25.50;;;;;;2221267;62;20933;-60
2023/07/11 03:24:31;0.00;0.00;0.62;0.00;0.00;0.62;2.90;1.90;;;32.70;25.50;;;;;;2221149;62;20385;-59
2023/07/11 03:27:16;0.00;0.00;0.62;0.00;0.00;0.62;2.37;1.63;;;32.60;25.40;;;;;;2220593;62;20438;-59
2023/07/11 03:30:01;0.00;0.00;0.62;0.00;0.00;0.62;2.07;1.60;;;32.60;25.40;;;;;;2221139;62;20426;-58
2023/07/11 03:32:45;0.00;0.00;0.62;0.00;0.00;0.62;2.73;1.47;;;32.60;25.40;;;;;;2220658;62;20977;-58
2023/07/11 03:35:33;0.00;0.00;0.62;0.00;0.00;0.62;2.13;1.70;;;32.70;25.50;;;;;;2221150;62;20401;-59
2023/07/11 03:38:19;0.00;0.00;0.62;0.00;0.00;0.62;1.80;1.40;;;32.60;25.50;;;;;;2221206;62;20369;-60
2023/07/11 03:41:04;0.00;0.00;0.62;0.00;0.00;0.62;2.00;1.63;;;32.60;25.50;;;;;;2220476;62;20899;-60
2023/07/11 03:43:48;0.00;0.00;0.62;0.00;0.00;0.62;1.90;1.57;;;32.60;25.50;;;;;;2221048;62;20966;-59
2023/07/11 03:46:33;0.00;0.00;0.62;0.00;0.00;0.62;1.90;1.60;;;32.60;26.00;;;;;;2221290;62;20374;-60
2023/07/11 03:49:17;0.00;0.00;0.62;0.00;0.00;0.62;2.30;1.63;;;32.60;25.50;;;;;;2220212;62;20431;-60
2023/07/11 03:52:05;0.00;0.00;0.62;0.00;0.00;0.62;2.07;1.47;;;32.60;25.50;;;;;;2221350;62;20405;-61
2023/07/11 03:54:49;0.00;0.00;0.62;0.00;0.00;0.62;2.27;1.57;;;32.60;25.50;;;;;;2220682;62;20455;-60
2023/07/11 03:57:34;0.00;0.00;0.62;0.00;0.00;0.62;2.43;1.50;;;32.60;25.50;;;;;;2221064;62;20421;-61
2023/07/11 04:00:19;0.00;0.00;0.62;0.00;0.00;0.62;2.23;1.70;;;32.60;25.50;;;;;;2220740;62;20369;-61
2023/07/11 04:03:04;0.00;0.00;0.62;0.00;0.00;0.62;2.30;1.40;;;32.60;25.50;;;;;;2220783;62;20388;-61
2023/07/11 04:05:50;0.00;0.00;0.62;0.00;0.00;0.62;2.03;1.47;;;32.60;25.50;;;;;;2221026;62;20386;-61
2023/07/11 04:08:36;0.00;0.00;0.62;0.00;0.00;0.62;2.80;1.47;;;32.50;25.50;;;;;;2220918;62;20395;-60
2023/07/11 04:11:21;0.00;0.00;0.62;0.00;0.00;0.62;2.53;1.50;;;32.60;25.50;;;;;;2220449;62;20374;-58
2023/07/11 04:14:06;0.00;0.00;0.62;0.00;0.00;0.62;2.27;1.47;;;32.50;25.50;;;;;;2221078;62;20869;-61
2023/07/11 04:16:50;0.00;0.00;0.62;0.00;0.00;0.62;2.20;1.53;;;32.50;25.50;;;;;;2221135;62;20398;-61
2023/07/11 04:19:35;0.00;0.00;0.62;0.00;0.00;0.62;2.60;1.93;;;32.60;25.50;;;;;;2220127;62;20401;-59
2023/07/11 04:22:20;0.00;0.00;0.62;0.00;0.00;0.62;2.00;1.60;;;32.50;25.50;;;;;;2221017;62;20896;-59
2023/07/11 04:25:07;0.00;0.00;0.62;0.00;0.00;0.62;2.80;2.00;;;32.50;25.50;;;;;;2220575;62;20389;-60
2023/07/11 04:27:52;0.00;0.00;0.62;0.00;0.00;0.62;2.50;1.67;;;32.50;25.50;;;;;;2220956;62;20669;-58
2023/07/11 04:30:37;0.00;0.00;0.62;0.00;0.00;0.62;2.97;1.80;;;32.50;25.50;;;;;;2220918;62;20365;-61
2023/07/11 04:33:22;0.00;0.00;0.62;0.00;0.00;0.62;2.67;1.90;;;32.50;25.50;;;;;;2220173;62;20381;-61
2023/07/11 04:36:10;0.00;0.00;0.62;0.00;0.00;0.62;2.83;1.57;;;32.50;25.50;;;;;;2221302;62;20394;-61
2023/07/11 04:38:55;0.00;0.00;0.62;0.00;0.00;0.62;1.80;1.40;;;32.50;25.50;;;;;;2220870;62;20430;-62
2023/07/11 04:41:41;0.00;0.00;0.62;0.00;0.00;0.62;2.93;1.60;;;32.50;25.50;;;;;;2220714;62;20398;-61
2023/07/11 04:44:26;0.00;0.00;0.62;0.00;0.00;0.62;2.20;1.73;;;32.50;25.50;;;;;;2220814;62;20390;-61
2023/07/11 04:47:11;0.00;0.00;0.62;0.00;0.00;0.62;2.27;1.60;;;32.50;25.50;;;;;;2220848;62;20399;-61
2023/07/11 04:49:56;0.00;0.00;0.62;0.00;0.00;0.62;1.80;1.40;;;32.50;25.50;;;;;;2220607;62;20450;-61
2023/07/11 04:52:42;0.00;0.00;0.62;0.00;0.00;0.62;2.47;1.50;;;32.50;25.50;;;;;;2220868;62;20369;-61
2023/07/11 04:55:27;0.00;0.00;0.62;0.00;0.00;0.62;2.37;1.80;;;32.50;25.50;;;;;;2220139;62;20805;-60
2023/07/11 04:58:13;0.00;0.00;0.62;0.00;0.00;0.62;2.10;1.63;;;32.50;25.50;;;;;;2221003;62;20934;-61
2023/07/11 05:01:00;0.00;0.00;0.62;0.00;0.00;0.62;2.47;1.90;;;32.50;25.50;;;;;;2220849;62;20418;-61
2023/07/11 05:03:45;0.00;0.00;0.62;0.00;0.00;0.62;3.93;2.13;;;32.50;25.50;;;;;;2220668;62;20435;-61
2023/07/11 05:06:30;0.00;0.00;0.62;0.00;0.00;0.62;2.47;1.90;;;32.50;25.50;;;;;;2221126;62;20927;-59
2023/07/11 05:09:15;0.00;0.00;0.62;0.00;0.00;0.62;2.57;2.23;;;32.40;25.40;;;;;;2220369;62;20537;-61
2023/07/11 05:12:00;0.00;0.00;0.62;0.00;0.00;0.62;2.23;1.87;;;32.50;25.50;;;;;;2220786;62;20880;-60
2023/07/11 05:14:47;0.00;0.00;0.62;0.00;0.00;0.62;2.70;2.10;;;32.40;25.50;;;;;;2220845;62;20410;-61
2023/07/11 05:17:31;0.00;0.00;0.62;0.00;0.00;0.62;2.73;2.30;;;32.40;25.50;;;;;;2220353;62;20410;-61
2023/07/11 05:20:16;0.00;0.00;0.62;0.00;0.00;0.62;2.80;2.20;;;32.40;25.40;;;;;;2220479;62;20952;-60
2023/07/11 05:23:01;0.00;0.00;0.62;0.00;0.00;0.62;3.17;2.03;;;32.50;26.00;;;;;;2221247;62;20370;-61
2023/07/11 05:25:45;0.00;0.00;0.62;0.00;0.00;0.62;2.37;1.80;;;32.40;25.50;;;;;;2220308;62;20385;-62
2023/07/11 05:28:31;0.00;0.00;0.62;0.00;0.00;0.62;3.50;2.07;;;32.40;25.50;;;;;;2220676;62;20419;-59
2023/07/11 05:31:18;0.00;0.00;0.62;0.00;0.00;0.62;2.77;2.10;;;32.50;26.10;;;;;;2220740;62;20423;-60
2023/07/11 05:34:03;0.00;0.00;0.62;0.00;0.00;0.62;4.10;2.00;;;32.50;25.60;;;;;;2220726;62;20429;-59
2023/07/11 05:36:47;0.00;0.00;0.62;0.00;0.00;0.62;3.40;2.00;;;32.40;25.50;;;;;;2220847;62;20400;-59
2023/07/11 05:39:32;0.00;0.00;0.62;0.00;0.00;0.62;2.80;1.83;;;32.50;25.50;;;;;;2220567;62;20783;-60
2023/07/11 05:42:16;0.00;0.00;0.62;0.00;0.00;0.62;3.63;3.07;;;32.50;26.10;;;;;;2221675;62;20385;-61
2023/07/11 05:45:02;0.00;0.00;0.62;0.00;0.00;0.62;3.07;2.37;;;32.40;25.50;;;;;;2221557;62;20782;-60
2023/07/11 05:47:48;0.00;0.00;0.62;0.00;0.00;0.62;2.97;2.20;;;32.40;25.50;;;;;;2220860;62;20370;-60
2023/07/11 05:50:33;0.00;0.00;0.62;0.00;0.00;0.62;3.70;2.40;;;32.40;25.50;;;;;;2220957;62;20923;-60
2023/07/11 05:53:18;0.00;0.00;0.62;0.00;0.00;0.62;3.20;2.00;;;32.40;25.50;;;;;;2221337;62;20831;-60
2023/07/11 05:56:03;0.00;0.00;0.62;0.00;0.00;0.62;3.20;2.27;;;32.40;25.50;;;;;;2221125;62;20389;-60
2023/07/11 05:58:51;0.00;0.00;0.62;0.00;0.00;0.62;3.00;2.20;;;32.40;25.50;;;;;;2221231;62;20396;-60
2023/07/11 06:01:36;0.00;0.00;0.62;0.00;0.00;0.62;2.50;1.87;;;32.40;26.00;;;;;;2220616;62;20385;-61
2023/07/11 06:04:23;0.00;0.00;0.62;0.00;0.00;0.62;2.73;2.23;;;32.40;25.50;;;;;;2221520;62;20534;-61
2023/07/11 06:07:07;0.00;0.00;0.62;0.00;0.00;0.62;3.40;2.50;;;32.40;25.50;;;;;;2221371;62;20418;-59
2023/07/11 06:09:52;0.00;0.00;0.62;0.00;0.00;0.62;2.20;1.90;;;32.40;25.50;;;;;;2220460;62;20401;-59
2023/07/11 06:12:37;0.00;0.00;0.62;0.00;0.00;0.62;2.90;2.30;;;32.40;25.50;;;;;;2221814;62;20374;-61
2023/07/11 06:15:22;0.00;0.00;0.62;0.00;0.00;0.62;2.90;2.10;;;32.40;25.60;;;;;;2221233;62;20667;-62
2023/07/11 06:18:07;0.00;0.00;0.62;0.00;0.00;0.62;2.43;2.10;;;32.40;25.50;;;;;;2221053;62;20411;-60
2023/07/11 06:20:53;0.00;0.00;0.62;0.00;0.00;0.62;2.70;2.10;;;32.40;25.60;;;;;;2221435;62;20451;-61
2023/07/11 06:23:38;0.00;0.00;0.62;0.00;0.00;0.62;2.93;2.10;;;32.40;25.60;;;;;;2220829;62;20694;-61
2023/07/11 06:26:23;0.00;0.00;0.62;0.00;0.00;0.62;2.50;2.23;;;32.40;26.10;;;;;;2221421;62;20370;-61
2023/07/11 06:29:08;0.00;0.00;0.62;0.00;0.00;0.62;2.70;2.10;;;32.40;25.60;;;;;;2221190;62;20374;-61
2023/07/11 06:31:53;0.00;0.00;0.62;0.00;0.00;0.62;2.47;1.97;;;32.40;25.60;;;;;;2220734;62;20430;-58
2023/07/11 06:34:37;0.00;0.00;0.62;0.00;0.00;0.62;2.47;1.80;;;32.40;25.60;;;;;;2221641;62;20386;-59
2023/07/11 06:37:23;0.00;0.00;0.62;0.00;0.00;0.62;3.20;2.37;;;32.50;25.70;;;;;;2221447;62;20386;-61
2023/07/11 06:40:09;0.00;0.00;0.62;0.00;0.00;0.62;2.37;1.90;;;32.40;25.60;;;;;;2220336;62;20370;-61
2023/07/11 06:42:54;0.00;0.00;0.62;0.00;0.00;0.62;2.37;2.10;;;32.40;25.60;;;;;;2221564;62;20462;-61
2023/07/11 06:45:39;0.00;0.00;0.62;0.00;0.00;0.62;2.40;2.07;;;32.40;25.60;;;;;;2221062;62;20531;-58
2023/07/11 06:48:26;0.00;0.00;0.62;0.00;0.00;0.62;2.20;1.60;;;32.40;25.60;;;;;;2221149;62;20362;-60
2023/07/11 06:51:10;0.00;0.00;0.62;0.00;0.00;0.62;4.03;1.80;;;32.40;25.60;;;;;;2221368;62;20930;-60
2023/07/11 06:53:56;0.00;0.00;0.62;0.00;0.00;0.62;2.50;2.00;;;32.40;25.60;;;;;;2220596;62;20421;-61
2023/07/11 06:56:41;0.00;0.00;0.62;0.00;0.00;0.62;2.50;1.90;;;32.40;25.60;;;;;;2221343;62;20424;-61
2023/07/11 06:59:26;0.00;0.00;0.62;0.00;0.00;0.62;2.07;1.73;;;32.40;25.60;;;;;;2221024;62;20374;-59
2023/07/11 07:02:11;0.00;0.00;0.62;0.00;0.00;0.62;2.43;2.03;;;32.40;25.60;;;;;;2220854;62;20515;-61
2023/07/11 07:04:56;0.00;0.00;0.62;0.00;0.00;0.62;2.50;1.83;;;32.40;25.60;;;;;;2218301;62;20844;-61
2023/07/11 07:07:40;0.00;0.00;0.62;0.00;0.00;0.62;2.40;1.83;;;32.40;25.60;;;;;;2221105;62;20424;-61
2023/07/11 07:10:26;0.00;0.00;0.62;0.00;0.00;0.62;3.23;1.60;;;32.40;25.60;;;;;;2220908;62;20575;-60
2023/07/11 07:13:11;0.00;0.00;0.62;0.00;0.00;0.62;1.90;1.50;;;32.40;25.60;;;;;;2221437;62;20392;-58
2023/07/11 07:15:57;0.00;0.00;0.62;0.00;0.00;0.62;2.20;2.00;;;32.50;25.70;;;;;;2220466;62;20924;-58
2023/07/11 07:18:44;0.00;0.00;0.62;0.00;0.00;0.62;2.80;2.03;;;32.40;25.70;;;;;;2221014;62;20480;-60
2023/07/11 07:21:29;0.00;0.00;0.62;0.00;0.00;0.62;2.27;1.80;;;32.40;25.70;;;;;;2220841;62;20388;-61
2023/07/11 07:24:14;0.00;0.00;0.62;0.00;0.00;0.62;2.20;1.80;;;32.50;25.70;;;;;;2220410;62;20390;-61
2023/07/11 07:27:00;0.00;0.00;0.62;0.00;0.00;0.62;2.50;1.97;;;32.40;25.70;;;;;;2221404;62;20902;-60
2023/07/11 07:29:45;0.00;0.00;0.62;0.00;0.00;0.62;3.17;1.60;;;32.40;25.70;;;;;;2220571;62;20379;-61
2023/07/11 07:32:30;0.00;0.00;0.62;0.00;0.00;0.62;2.00;1.50;;;32.40;25.70;;;;;;2221096;62;20377;-61
2023/07/11 07:35:15;0.00;0.00;0.62;0.00;0.00;0.62;2.20;1.70;;;32.40;25.70;;;;;;2283937;56;20456;-61
2023/07/11 07:37:59;0.00;0.00;0.62;0.00;0.00;0.62;2.03;1.53;;;32.40;25.70;;;;;;2232243;62;20792;-60
2023/07/11 07:40:50;0.00;0.00;0.62;0.00;0.00;0.62;2.90;2.10;;;32.40;25.70;;;;;;2233193;62;20859;-60
2023/07/11 07:43:39;0.00;0.00;0.62;0.00;0.00;0.62;1.90;1.70;;;32.40;25.70;;;;;;2232791;62;20400;-61
2023/07/11 07:46:24;0.00;0.00;0.62;0.00;0.00;0.62;1.90;1.70;;;32.40;25.70;;;;;;2232416;62;20825;-61
2023/07/11 07:49:09;0.00;0.00;0.62;0.00;0.00;0.62;1.80;1.40;;;32.50;25.80;;;;;;2232727;62;20972;-58
2023/07/11 07:51:53;0.00;0.00;0.62;0.00;0.00;0.62;2.60;2.00;;;32.40;25.70;;;;;;2232435;62;20383;-61
2023/07/11 07:54:38;0.00;0.00;0.62;0.00;0.00;0.62;2.10;1.90;;;32.50;25.80;;;;;;2229699;62;20391;-60
2023/07/11 07:57:23;0.00;0.00;0.62;0.00;0.00;0.62;2.23;1.90;;;32.40;25.70;;;;;;2232770;62;20364;-60
2023/07/11 08:00:10;0.00;0.00;0.62;0.00;0.00;0.62;2.43;2.13;;;32.50;25.80;;;;;;2228515;62;20789;-60
2023/07/11 08:02:54;0.00;0.00;0.62;0.00;0.00;0.62;2.20;1.60;;;32.50;25.80;;;;;;2233021;62;20398;-60
2023/07/11 08:05:39;0.00;0.00;0.62;0.00;0.00;0.62;2.10;1.70;;;32.40;25.80;;;;;;2232985;62;20435;-60
2023/07/11 08:08:24;0.00;0.00;0.62;0.00;0.00;0.62;2.00;1.60;;;32.50;25.80;;;;;;2232062;62;20476;-61
2023/07/11 08:11:09;0.00;0.00;0.62;0.00;0.00;0.62;5.63;1.70;;;32.50;25.90;;;;;;2232097;62;20403;-61
2023/07/11 08:13:53;0.00;0.00;0.62;0.00;0.00;0.62;1.70;1.40;;;32.50;25.90;;;;;;2228742;62;20798;-61
2023/07/11 08:16:39;0.00;0.00;0.62;0.00;0.00;0.62;2.00;1.60;;;32.50;25.90;;;;;;2231763;62;21007;-60
2023/07/11 08:19:24;0.00;0.00;0.62;0.00;0.00;0.62;2.00;1.57;;;32.50;25.90;;;;;;2231862;62;20371;-63
2023/07/11 08:22:09;0.00;0.00;0.62;0.00;0.00;0.62;2.20;2.00;;;32.50;25.90;;;;;;2231331;62;20801;-61
2023/07/11 08:24:53;0.00;0.00;0.62;0.00;0.00;0.62;2.17;1.90;;;32.50;25.90;;;;;;2232135;62;20387;-60
2023/07/11 08:27:38;0.00;0.00;0.62;0.00;0.00;0.62;3.20;1.80;;;32.50;25.90;;;;;;2232168;62;20387;-60
2023/07/11 08:30:23;0.00;0.00;0.62;0.00;0.00;0.62;1.93;1.53;;;32.50;25.90;;;;;;2230987;62;20379;-60
2023/07/11 08:33:09;0.00;0.00;0.62;0.00;0.00;0.62;1.90;1.70;;;32.50;26.00;;;;;;2232507;62;20395;-59
2023/07/11 08:35:56;0.00;0.00;0.62;0.00;0.00;0.62;2.27;2.00;;;32.50;26.00;;;;;;2232017;62;20398;-60
2023/07/11 08:38:43;0.00;0.00;0.62;0.00;0.00;0.62;2.07;1.80;;;32.50;26.00;;;;;;2231419;62;20853;-61
2023/07/11 08:41:38;0.00;0.00;0.62;0.00;0.00;0.62;2.00;1.77;;;32.50;26.00;;;;;;2232270;62;20371;-63
2023/07/11 08:44:31;0.00;0.00;0.62;0.00;0.00;0.62;2.10;1.80;;;32.50;26.00;;;;;;2231313;62;20386;-60
2023/07/11 08:47:23;0.00;0.00;0.62;0.00;0.00;0.62;2.10;1.90;;;32.50;26.10;;;;;;2232245;62;20770;-61
2023/07/11 08:50:15;0.00;0.00;0.62;0.00;0.00;0.62;4.03;1.87;;;32.50;26.10;;;;;;2231824;62;20770;-62
2023/07/11 08:53:08;0.00;0.00;0.62;0.00;0.00;0.62;3.60;2.13;;;32.50;26.20;;;;;;2231451;62;20700;-61
2023/07/11 08:55:55;0.00;0.00;0.62;0.00;0.00;0.62;2.57;1.60;;;32.50;26.20;;;;;;2232109;62;20394;-58
2023/07/11 08:58:41;0.00;0.00;0.62;0.00;0.00;0.62;2.87;1.80;;;32.50;26.30;;;;;;2231584;62;20370;-61
2023/07/11 09:01:40;0.00;0.00;0.62;0.00;0.00;0.62;2.20;1.77;;;32.50;26.20;;;;;;2231611;62;20447;-60
2023/07/11 09:04:27;0.00;0.00;0.62;0.00;0.00;0.62;2.40;2.20;;;32.50;26.30;;;;;;2232103;62;20815;-60
2023/07/11 09:07:33;0.00;0.00;0.62;0.00;0.00;0.62;2.07;1.80;;;32.50;26.30;;;;;;2231276;62;20372;-64
2023/07/11 09:10:35;0.00;0.00;0.62;0.00;0.00;0.62;2.50;1.83;;;32.50;26.30;;;;;;2231876;62;20423;-64
2023/07/11 09:13:51;0.00;0.00;0.62;0.00;0.00;0.62;2.07;1.50;;;32.50;26.30;;;;;;2232432;62;20369;-58
2023/07/11 09:16:40;0.00;0.00;0.62;0.00;0.00;0.62;2.83;2.20;;;32.50;26.30;;;;;;2232614;62;20893;-62
2023/07/11 09:19:39;0.00;0.00;0.62;0.00;0.00;0.62;2.70;1.77;;;32.50;26.30;;;;;;2232470;62;20958;-60
2023/07/11 09:22:41;0.00;0.00;0.62;0.00;0.00;0.62;2.97;2.50;;;32.50;26.30;;;;;;2231929;62;20427;-62
2023/07/11 09:25:32;0.00;0.00;0.62;0.00;0.00;0.62;2.30;1.90;;;32.60;26.30;;;;;;2233020;62;20391;-61
2023/07/11 09:28:23;0.00;0.00;0.62;0.00;0.00;0.62;2.30;2.07;;;32.50;26.30;;;;;;2231993;62;20395;-61
2023/07/11 09:31:12;0.00;0.00;0.62;0.00;0.00;0.62;1.90;1.70;;;32.50;26.30;;;;;;2232707;62;20775;-60
2023/07/11 09:33:58;0.00;0.00;0.62;0.00;0.00;0.62;2.33;1.90;;;32.60;26.30;;;;;;2233033;62;20406;-61
2023/07/11 09:36:46;0.00;0.00;0.62;0.00;0.00;0.62;3.50;1.77;;;32.60;26.30;;;;;;2231928;62;20398;-61
2023/07/11 09:39:40;0.00;0.00;0.62;0.00;0.00;0.62;2.20;2.00;;;32.60;26.30;;;;;;2232495;62;20407;-61
2023/07/11 09:42:40;0.00;0.00;0.62;0.00;0.00;0.62;1.87;1.50;;;32.60;26.30;;;;;;2232740;62;20739;-61
2023/07/11 09:45:32;0.00;0.00;0.62;0.00;0.00;0.62;2.17;1.97;;;32.60;26.30;;;;;;2232400;62;21010;-60
2023/07/11 09:48:21;0.00;0.00;0.62;0.00;0.00;0.62;2.30;2.10;;;32.60;26.30;;;;;;2232420;62;20375;-61
2023/07/11 09:51:24;0.00;0.00;0.62;0.00;0.00;0.62;2.53;2.03;;;32.60;26.80;;;;;;2231696;62;20438;-60
2023/07/11 09:54:17;0.00;0.00;0.62;0.00;0.00;0.62;2.67;2.17;;;32.60;26.30;;;;;;2232769;62;20920;-61
2023/07/11 09:57:10;0.00;0.00;0.62;0.00;0.00;0.62;2.03;1.83;;;32.60;26.30;;;;;;2232584;62;20537;-60
2023/07/11 09:59:59;0.00;0.00;0.62;0.00;0.00;0.62;2.37;2.17;;;32.60;26.30;;;;;;2232024;62;20422;-61
2023/07/11 10:02:46;0.00;0.00;0.62;0.00;0.00;0.62;2.50;2.10;;;32.70;26.40;;;;;;2232614;62;20392;-61
2023/07/11 10:05:31;0.00;0.00;0.62;0.00;0.00;0.62;2.30;2.00;;;32.60;26.30;;;;;;2232413;62;20786;-59
2023/07/11 10:08:19;0.00;0.00;0.62;0.00;0.00;0.62;2.53;2.17;;;32.70;26.40;;;;;;2232262;62;20813;-60
2023/07/11 10:11:11;0.00;0.00;0.62;0.00;0.00;0.62;2.23;2.03;;;32.60;26.30;;;;;;2232674;62;20391;-61
2023/07/11 10:13:57;0.00;0.00;0.62;0.00;0.00;0.62;2.70;2.10;;;32.60;26.30;;;;;;2231835;62;20382;-61
2023/07/11 10:16:42;0.00;0.00;0.62;0.00;0.00;0.62;2.63;2.20;;;32.60;26.30;;;;;;2229503;62;20821;-61
2023/07/11 10:19:28;0.00;0.00;0.62;0.00;0.00;0.62;2.17;1.87;;;32.70;26.40;;;;;;2232018;62;20913;-62
2023/07/11 10:22:19;0.00;0.00;0.62;0.00;0.00;0.62;2.47;2.10;;;32.70;26.40;;;;;;2232269;62;20367;-62
2023/07/11 10:25:18;0.00;0.00;0.62;0.00;0.00;0.62;2.30;2.00;;;32.70;26.40;;;;;;2232117;62;20506;-60
2023/07/11 10:28:20;0.00;0.00;0.62;0.00;0.00;0.62;3.07;2.23;;;32.70;26.40;;;;;;2231800;62;20582;-60
2023/07/11 10:31:13;0.00;0.00;0.62;0.00;0.00;0.62;2.03;1.83;;;32.70;26.40;;;;;;2232392;62;20432;-61
2023/07/11 10:34:04;0.00;0.00;0.62;0.00;0.00;0.62;2.20;2.00;;;32.70;26.40;;;;;;2232590;62;20908;-61
2023/07/11 10:36:51;0.00;0.00;0.62;0.00;0.00;0.62;2.50;2.20;;;32.70;26.40;;;;;;2232140;62;20942;-61
2023/07/11 10:39:42;0.00;0.00;0.62;0.00;0.00;0.62;2.70;2.10;;;32.80;26.40;;;;;;2232185;62;20427;-61
2023/07/11 10:42:36;0.00;0.00;0.62;0.00;0.00;0.62;2.47;2.10;;;32.80;26.40;;;;;;2232290;62;20431;-61
2023/07/11 10:45:26;0.00;0.00;0.62;0.00;0.00;0.62;3.80;2.47;;;32.80;26.40;;;;;;2232523;62;20782;-60
2023/07/11 10:48:25;0.00;0.00;0.62;0.00;0.00;0.62;2.60;2.10;;;32.80;26.40;;;;;;2232629;62;20375;-61
2023/07/11 10:51:18;0.00;0.00;0.62;0.00;0.00;0.62;2.83;2.27;;;32.80;26.40;;;;;;2232090;62;20408;-61
2023/07/11 10:54:12;0.00;0.00;0.62;0.00;0.00;0.62;2.47;2.03;;;32.80;26.40;;;;;;2232398;62;20794;-61
2023/07/11 10:57:03;0.00;0.00;0.62;0.00;0.00;0.62;3.40;2.50;;;32.90;26.50;;;;;;2232005;62;20447;-61
2023/07/11 10:59:47;0.00;0.00;0.62;0.00;0.00;0.62;2.37;2.10;;;32.90;26.50;;;;;;2231631;62;20862;-61